createdAt,value
2022-10-14T00:00:21.132Z,32.67
2022-10-14T00:02:47.740Z,34.67
2022-10-14T00:05:14.144Z,32.50
2022-10-14T00:07:40.819Z,32.78
2022-10-14T00:10:07.428Z,33.33
2022-10-14T00:12:33.937Z,33.17
2022-10-14T00:15:00.504Z,33.33
2022-10-14T00:17:26.937Z,31.25
2022-10-14T00:19:53.387Z,31.50
2022-10-14T00:22:19.803Z,32.47
2022-10-14T00:24:46.227Z,33.53
2022-10-14T00:27:12.674Z,32.23
2022-10-14T00:29:39.095Z,31.83
2022-10-14T00:32:05.530Z,32.07
2022-10-14T00:34:32.470Z,31.70
2022-10-14T00:36:58.870Z,32.57
2022-10-14T00:39:25.299Z,33.10
2022-10-14T00:41:51.732Z,32.00
2022-10-14T00:44:18.117Z,31.57
2022-10-14T00:46:45.264Z,32.23
2022-10-14T00:49:23.986Z,33.13
2022-10-14T00:52:00.992Z,32.13
2022-10-14T00:54:32.228Z,30.00
2022-10-14T00:56:58.678Z,31.17
2022-10-14T00:59:25.108Z,31.43
2022-10-14T01:01:51.517Z,32.15
2022-10-14T01:04:17.974Z,30.10
2022-10-14T01:06:48.054Z,31.77
2022-10-14T01:09:29.855Z,30.67
2022-10-14T01:12:30.301Z,30.57
2022-10-14T01:15:05.200Z,31.43
2022-10-14T01:17:37.765Z,29.87
2022-10-14T01:20:22.588Z,30.40
2022-10-14T01:22:51.972Z,29.53
2022-10-14T01:25:32.605Z,31.57
2022-10-14T01:28:17.864Z,30.87
2022-10-14T01:30:44.888Z,29.33
2022-10-14T01:33:33.115Z,28.33
2022-10-14T01:36:04.395Z,28.20
2022-10-14T01:38:32.179Z,28.67
2022-10-14T01:41:00.701Z,27.70
2022-10-14T01:43:27.595Z,29.00
2022-10-14T01:45:54.072Z,28.70
2022-10-14T01:48:21.399Z,28.37
2022-10-14T01:50:48.223Z,27.17
2022-10-14T01:53:16.901Z,28.50
2022-10-14T01:55:44.723Z,27.57
2022-10-14T01:58:11.251Z,28.27
2022-10-14T02:00:38.425Z,28.53
2022-10-14T02:03:04.841Z,28.83
2022-10-14T02:05:31.264Z,27.20
2022-10-14T02:07:58.577Z,27.70
2022-10-14T02:10:25.033Z,27.40
2022-10-14T02:13:10.303Z,27.53
2022-10-14T02:15:39.700Z,27.30
2022-10-14T02:18:06.993Z,27.30
2022-10-14T02:20:37.772Z,26.67
2022-10-14T02:23:06.565Z,26.20
2022-10-14T02:25:34.441Z,28.27
2022-10-14T02:28:00.961Z,26.73
2022-10-14T02:30:27.679Z,28.93
2022-10-14T02:32:54.176Z,28.50
2022-10-14T02:35:20.687Z,28.97
2022-10-14T02:37:47.487Z,28.57
2022-10-14T02:40:14.818Z,27.33
2022-10-14T02:42:41.291Z,28.67
2022-10-14T02:45:08.005Z,26.70
2022-10-14T02:47:34.423Z,27.50
2022-10-14T02:50:00.851Z,29.23
2022-10-14T02:52:27.299Z,27.13
2022-10-14T02:54:53.749Z,28.07
2022-10-14T02:57:20.177Z,28.40
2022-10-14T02:59:46.698Z,27.10
2022-10-14T03:02:13.212Z,27.47
2022-10-14T03:04:39.641Z,26.93
2022-10-14T03:07:06.089Z,28.53
2022-10-14T03:09:32.534Z,28.00
2022-10-14T03:11:58.939Z,27.07
2022-10-14T03:14:25.379Z,27.47
2022-10-14T03:16:51.803Z,28.30
2022-10-14T03:19:18.257Z,28.77
2022-10-14T03:21:44.657Z,28.60
2022-10-14T03:24:11.154Z,28.50
2022-10-14T03:26:37.557Z,28.93
2022-10-14T03:29:03.991Z,28.33
2022-10-14T03:31:30.398Z,28.40
2022-10-14T03:33:56.841Z,28.17
2022-10-14T03:36:23.343Z,27.60
2022-10-14T03:38:49.771Z,28.73
2022-10-14T03:41:16.196Z,28.20
2022-10-14T03:43:42.603Z,28.83
2022-10-14T03:46:09.031Z,29.53
2022-10-14T03:48:35.446Z,29.47
2022-10-14T03:51:01.948Z,28.73
2022-10-14T03:53:28.371Z,29.07
2022-10-14T03:55:54.813Z,29.67
2022-10-14T03:58:21.250Z,28.83
2022-10-14T04:00:47.811Z,27.57
2022-10-14T04:03:14.291Z,29.70
2022-10-14T04:05:40.790Z,28.90
2022-10-14T04:08:07.193Z,28.33
2022-10-14T04:10:33.650Z,28.77
2022-10-14T04:13:00.059Z,30.43
2022-10-14T04:15:26.626Z,27.80
2022-10-14T04:17:53.065Z,29.07
2022-10-14T04:20:19.596Z,29.50
2022-10-14T04:22:46.019Z,29.87
2022-10-14T04:25:12.521Z,27.83
2022-10-14T04:27:38.971Z,27.33
2022-10-14T04:30:05.690Z,27.00
2022-10-14T04:32:32.167Z,27.80
2022-10-14T04:34:58.603Z,28.37
2022-10-14T04:37:25.142Z,27.70
2022-10-14T04:39:51.573Z,28.50
2022-10-14T04:42:18.002Z,27.27
2022-10-14T04:44:44.432Z,29.03
2022-10-14T04:47:10.843Z,28.23
2022-10-14T04:49:37.257Z,31.00
2022-10-14T04:52:03.704Z,30.57
2022-10-14T04:54:30.897Z,31.43
2022-10-14T04:56:57.306Z,31.37
2022-10-14T04:59:23.721Z,31.07
2022-10-14T05:01:50.215Z,30.73
2022-10-14T05:04:16.729Z,29.70
2022-10-14T05:06:43.211Z,31.57
2022-10-14T05:09:09.614Z,32.20
2022-10-14T05:11:36.109Z,30.03
2022-10-14T05:14:02.534Z,31.50
2022-10-14T05:16:29.024Z,32.83
2022-10-14T05:18:55.449Z,31.10
2022-10-14T05:21:21.879Z,31.45
2022-10-14T05:23:48.273Z,29.83
2022-10-14T05:26:14.778Z,31.40
2022-10-14T05:28:41.314Z,29.55
2022-10-14T05:31:07.863Z,30.60
2022-10-14T05:33:34.750Z,31.67
2022-10-14T05:36:01.162Z,31.30
2022-10-14T05:38:27.619Z,30.52
2022-10-14T05:40:54.632Z,29.23
2022-10-14T05:43:21.181Z,30.37
2022-10-14T05:45:47.674Z,29.53
2022-10-14T05:48:14.122Z,30.17
2022-10-14T05:50:40.533Z,29.47
2022-10-14T05:53:06.979Z,31.63
2022-10-14T05:55:33.450Z,31.13
2022-10-14T05:58:00.348Z,30.25
2022-10-14T06:00:26.768Z,30.40
2022-10-14T06:02:53.312Z,31.17
2022-10-14T06:05:19.830Z,30.03
2022-10-14T06:07:46.311Z,29.48
2022-10-14T06:10:12.806Z,32.10
2022-10-14T06:12:39.300Z,30.45
2022-10-14T06:15:05.977Z,31.40
2022-10-14T06:17:32.406Z,29.03
2022-10-14T06:19:58.790Z,28.30
2022-10-14T06:22:25.297Z,28.97
2022-10-14T06:24:51.697Z,28.57
2022-10-14T06:27:18.160Z,30.13
2022-10-14T06:29:44.645Z,28.10
2022-10-14T06:32:11.099Z,29.50
2022-10-14T06:34:37.549Z,29.53
2022-10-14T06:37:04.019Z,29.37
2022-10-14T06:39:30.529Z,28.80
2022-10-14T06:41:57.048Z,29.13
2022-10-14T06:44:23.548Z,29.27
2022-10-14T06:46:50.015Z,30.60
2022-10-14T06:49:16.494Z,31.93
2022-10-14T06:51:42.968Z,34.10
2022-10-14T06:54:09.544Z,34.00
2022-10-14T06:56:36.033Z,33.20
2022-10-14T06:59:02.703Z,32.00
2022-10-14T07:01:29.230Z,30.07
2022-10-14T07:03:56.796Z,30.67
2022-10-14T07:06:23.563Z,28.98
2022-10-14T07:08:50.070Z,31.17
2022-10-14T07:11:16.474Z,29.57
2022-10-14T07:13:43.127Z,29.50
2022-10-14T07:16:09.644Z,31.60
2022-10-14T07:18:36.162Z,30.65
2022-10-14T07:21:05.672Z,32.53
2022-10-14T07:23:32.166Z,35.70
2022-10-14T07:25:58.956Z,36.20
2022-10-14T07:28:25.421Z,33.65
2022-10-14T07:31:01.779Z,34.75
2022-10-14T07:33:28.317Z,34.30
2022-10-14T07:35:55.213Z,32.85
2022-10-14T07:38:22.037Z,32.33
2022-10-14T07:40:58.685Z,34.17
2022-10-14T07:43:25.140Z,31.85
2022-10-14T07:45:51.678Z,32.60
2022-10-14T07:48:27.147Z,33.28
2022-10-14T07:50:59.435Z,31.20
2022-10-14T07:53:25.827Z,32.50
2022-10-14T07:55:52.444Z,34.28
2022-10-14T07:58:19.796Z,32.65
2022-10-14T08:00:46.278Z,32.10
2022-10-14T08:03:12.686Z,30.95
2022-10-14T08:05:39.280Z,29.07
2022-10-14T08:08:05.777Z,28.85
2022-10-14T08:10:32.326Z,32.58
2022-10-14T08:12:58.727Z,30.60
2022-10-14T08:15:28.630Z,31.10
2022-10-14T08:17:55.034Z,31.17
2022-10-14T08:22:47.782Z,32.17
2022-10-14T08:25:14.281Z,31.67
2022-10-14T08:27:40.797Z,33.13
2022-10-14T08:30:11.062Z,34.03
2022-10-14T08:32:38.292Z,33.60
2022-10-14T08:35:05.003Z,34.60
2022-10-14T08:37:31.428Z,34.28
2022-10-14T08:39:57.979Z,33.92
2022-10-14T08:42:24.758Z,35.08
2022-10-14T08:44:58.131Z,34.92
2022-10-14T08:47:26.733Z,35.78
2022-10-14T08:50:19.516Z,38.13
2022-10-14T08:52:48.020Z,39.60
2022-10-14T08:55:19.042Z,38.95
2022-10-14T08:57:49.569Z,40.38
2022-10-14T09:00:16.551Z,40.17
2022-10-14T09:02:44.542Z,38.88
2022-10-14T09:05:17.740Z,36.97
2022-10-14T09:07:44.811Z,35.65
2022-10-14T09:10:12.098Z,35.90
2022-10-14T09:12:38.580Z,35.92
2022-10-14T09:15:12.322Z,36.92
2022-10-14T09:17:43.488Z,34.33
2022-10-14T09:20:20.364Z,37.05
2022-10-14T09:22:53.341Z,36.58
2022-10-14T09:25:19.935Z,35.90
2022-10-14T09:30:14.289Z,33.92
2022-10-14T09:32:41.472Z,34.63
2022-10-14T09:35:15.601Z,37.00
2022-10-14T09:37:42.489Z,35.38
2022-10-14T09:40:08.897Z,33.85
2022-10-14T09:42:47.664Z,32.55
2022-10-14T09:45:15.076Z,31.08
2022-10-14T09:47:47.577Z,30.77
2022-10-14T09:50:20.148Z,29.85
2022-10-14T09:52:49.124Z,28.35
2022-10-14T09:55:18.889Z,28.50
2022-10-14T09:57:45.379Z,27.45
2022-10-14T10:00:25.003Z,26.55
2022-10-14T10:02:53.094Z,26.30
2022-10-14T10:05:23.752Z,25.95
2022-10-14T10:08:05.797Z,23.13
2022-10-14T10:10:34.838Z,24.95
2022-10-14T10:13:01.653Z,23.70
2022-10-14T10:15:28.378Z,24.85
2022-10-14T10:17:54.779Z,24.58
2022-10-14T10:20:28.681Z,24.05
2022-10-14T10:22:56.625Z,23.63
2022-10-14T10:25:26.781Z,23.60
2022-10-14T10:27:53.336Z,22.50
2022-10-14T10:30:29.669Z,22.35
2022-10-14T10:33:09.076Z,21.30
2022-10-14T10:35:48.137Z,22.17
2022-10-14T10:38:14.531Z,19.95
2022-10-14T10:40:41.917Z,19.50
2022-10-14T10:43:40.889Z,20.50
2022-10-14T10:46:25.898Z,20.17
2022-10-14T10:48:57.989Z,19.70
2022-10-14T10:51:26.806Z,22.05
2022-10-14T10:53:56.999Z,20.52
2022-10-14T10:56:38.879Z,19.83
2022-10-14T10:59:06.573Z,18.98
2022-10-14T11:01:36.899Z,18.67
2022-10-14T11:04:22.476Z,18.23
2022-10-14T11:07:28.253Z,18.30
2022-10-14T11:10:22.412Z,19.95
2022-10-14T11:13:11.817Z,18.35
2022-10-14T11:15:49.628Z,19.00
2022-10-14T11:18:35.185Z,16.98
2022-10-14T11:21:07.872Z,19.63
2022-10-14T11:23:59.695Z,20.17
2022-10-14T11:26:45.586Z,20.10
2022-10-14T11:29:20.513Z,18.08
2022-10-14T11:31:51.819Z,18.70
2022-10-14T11:34:18.239Z,18.60
2022-10-14T11:36:59.962Z,18.88
2022-10-14T11:39:31.967Z,18.25
2022-10-14T11:42:01.612Z,17.15
2022-10-14T11:47:05.414Z,15.82
2022-10-14T11:49:33.234Z,16.50
2022-10-14T11:52:14.688Z,19.13
2022-10-14T11:54:41.205Z,18.83
2022-10-14T11:57:10.802Z,17.88
2022-10-14T11:59:56.019Z,18.67
2022-10-14T12:02:26.381Z,17.70
2022-10-14T12:04:55.216Z,16.60
2022-10-14T12:07:24.711Z,17.10
2022-10-14T12:10:13.481Z,15.27
2022-10-14T12:12:40.006Z,16.25
2022-10-14T12:15:07.347Z,16.30
2022-10-14T12:17:35.429Z,16.08
2022-10-14T12:20:03.932Z,16.67
2022-10-14T12:22:30.575Z,15.75
2022-10-14T12:24:58.030Z,15.93
2022-10-14T12:27:24.817Z,17.20
2022-10-14T12:29:51.748Z,16.58
2022-10-14T12:32:21.647Z,16.08
2022-10-14T12:34:53.882Z,17.35
2022-10-14T12:37:31.775Z,17.95
2022-10-14T12:40:07.694Z,17.50
2022-10-14T12:42:35.045Z,13.57
2022-10-14T12:45:02.165Z,14.30
2022-10-14T12:47:29.578Z,12.73
2022-10-14T12:49:56.487Z,13.23
2022-10-14T12:52:27.247Z,14.40
2022-10-14T12:54:53.659Z,15.27
2022-10-14T12:57:20.401Z,14.93
2022-10-14T12:59:49.028Z,14.65
2022-10-14T13:02:18.526Z,16.00
2022-10-14T13:04:48.833Z,17.02
2022-10-14T13:07:52.213Z,18.45
2022-10-14T13:10:23.502Z,17.20
2022-10-14T13:12:49.960Z,17.25
2022-10-14T13:15:35.226Z,16.52
2022-10-14T13:18:40.434Z,16.38
2022-10-14T13:21:07.689Z,16.67
2022-10-14T13:23:41.248Z,17.00
2022-10-14T13:26:27.949Z,15.68
2022-10-14T13:29:00.666Z,16.92
2022-10-14T13:31:46.084Z,15.63
2022-10-14T13:34:18.550Z,17.17
2022-10-14T13:36:51.095Z,15.25
2022-10-14T13:39:17.496Z,15.55
2022-10-14T13:41:43.959Z,16.23
2022-10-14T13:44:10.570Z,15.13
2022-10-14T13:46:39.001Z,16.98
2022-10-14T13:49:05.919Z,16.05
2022-10-14T13:51:42.507Z,15.07
2022-10-14T13:54:16.843Z,15.13
2022-10-14T13:56:43.455Z,14.02
2022-10-14T13:59:39.245Z,14.98
2022-10-14T14:02:09.844Z,17.05
2022-10-14T14:04:36.510Z,16.67
2022-10-14T14:07:27.453Z,16.58
2022-10-14T14:09:51.203Z,16.65
2022-10-14T14:12:18.361Z,17.50
2022-10-14T14:14:44.815Z,15.32
2022-10-14T14:17:18.577Z,16.75
2022-10-14T14:19:46.382Z,17.30
2022-10-14T14:22:27.306Z,17.05
2022-10-14T14:25:32.606Z,17.50
2022-10-14T14:27:56.112Z,16.95
2022-10-14T14:30:23.628Z,17.98
2022-10-14T14:32:50.063Z,18.15
2022-10-14T14:35:19.349Z,17.65
2022-10-14T14:37:55.788Z,17.48
2022-10-14T14:40:23.945Z,18.20
2022-10-14T14:42:51.593Z,18.83
2022-10-14T14:45:20.649Z,17.55
2022-10-14T14:47:50.361Z,17.77
2022-10-14T14:50:30.443Z,17.58
2022-10-14T14:55:35.453Z,19.02
2022-10-14T14:58:02.229Z,18.25
2022-10-14T15:00:30.670Z,18.38
2022-10-14T15:03:00.636Z,19.13
2022-10-14T15:05:27.251Z,19.35
2022-10-14T15:07:53.802Z,18.38
2022-10-14T15:10:24.298Z,18.80
2022-10-14T15:12:51.837Z,17.30
2022-10-14T15:15:32.357Z,18.55
2022-10-14T15:18:07.077Z,17.75
2022-10-14T15:20:36.650Z,18.33
2022-10-14T15:23:23.015Z,16.80
2022-10-14T15:25:57.112Z,18.05
2022-10-14T15:28:30.968Z,18.73
2022-10-14T15:31:03.012Z,19.83
2022-10-14T15:33:32.154Z,17.63
2022-10-14T15:35:59.785Z,18.25
2022-10-14T15:38:26.519Z,18.50
2022-10-14T15:40:53.122Z,17.55
2022-10-14T15:43:23.416Z,18.85
2022-10-14T15:46:09.078Z,18.25
2022-10-14T15:48:35.518Z,17.17
2022-10-14T15:51:02.060Z,17.95
2022-10-14T15:53:29.454Z,18.08
2022-10-14T15:55:55.936Z,19.48
2022-10-14T15:58:22.398Z,19.45
2022-10-14T16:00:48.822Z,17.63
2022-10-14T16:03:17.820Z,19.70
2022-10-14T16:05:44.215Z,19.00
2022-10-14T16:08:11.311Z,19.40
2022-10-14T16:10:37.678Z,18.90
2022-10-14T16:13:04.119Z,20.10
2022-10-14T16:15:50.775Z,21.83
2022-10-14T16:18:18.420Z,21.63
2022-10-14T16:20:45.324Z,21.55
2022-10-14T16:23:15.121Z,20.38
2022-10-14T16:25:44.178Z,23.45
2022-10-14T16:28:10.996Z,22.98
2022-10-14T16:30:39.606Z,19.48
2022-10-14T16:33:06.160Z,22.88
2022-10-14T16:35:32.665Z,23.50
2022-10-14T16:37:59.374Z,23.15
2022-10-14T16:40:25.784Z,22.95
2022-10-14T16:42:52.241Z,22.70
2022-10-14T16:45:18.729Z,22.10
2022-10-14T16:47:45.177Z,21.55
2022-10-14T16:50:11.666Z,22.05
2022-10-14T16:52:57.593Z,23.38
2022-10-14T16:55:25.339Z,21.50
2022-10-14T16:57:51.822Z,21.00
2022-10-14T17:02:44.860Z,22.73
2022-10-14T17:05:11.336Z,23.45
2022-10-14T17:07:37.752Z,22.48
2022-10-14T17:10:04.921Z,22.80
2022-10-14T17:12:31.348Z,21.65
2022-10-14T17:14:57.749Z,21.42
2022-10-14T17:17:24.258Z,21.88
2022-10-14T17:19:53.980Z,21.85
2022-10-14T17:22:21.021Z,22.85
2022-10-14T17:24:48.014Z,22.42
2022-10-14T17:27:14.513Z,23.70
2022-10-14T17:29:40.981Z,23.35
2022-10-14T17:32:07.389Z,24.10
2022-10-14T17:34:33.925Z,23.02
2022-10-14T17:37:00.424Z,24.15
2022-10-14T17:39:29.455Z,22.40
2022-10-14T17:41:56.233Z,23.05
2022-10-14T17:44:22.619Z,25.52
2022-10-14T17:46:49.159Z,24.73
2022-10-14T17:49:16.062Z,24.67
2022-10-14T17:51:42.498Z,25.35
2022-10-14T17:54:10.485Z,24.10
2022-10-14T17:56:37.712Z,26.88
2022-10-14T17:59:08.118Z,26.85
2022-10-14T18:02:00.901Z,28.70
2022-10-14T18:06:47.513Z,27.05
2022-10-14T18:09:13.925Z,25.88
2022-10-14T18:14:28.474Z,26.77
2022-10-14T18:16:54.887Z,26.40
2022-10-14T18:19:21.347Z,26.98
2022-10-14T18:21:48.329Z,29.15
2022-10-14T18:24:14.760Z,28.48
2022-10-14T18:26:41.425Z,31.58
2022-10-14T18:29:08.092Z,32.15
2022-10-14T18:31:34.593Z,32.88
2022-10-14T18:34:01.205Z,31.35
2022-10-14T18:36:28.527Z,32.03
2022-10-14T18:38:55.161Z,32.67
2022-10-14T18:41:21.637Z,33.88
2022-10-14T18:43:48.269Z,36.97
2022-10-14T18:46:18.553Z,36.10
2022-10-14T18:48:46.900Z,36.78
2022-10-14T18:51:13.629Z,35.47
2022-10-14T18:53:40.311Z,36.95
2022-10-14T18:56:08.692Z,34.15
2022-10-14T18:58:38.556Z,37.40
2022-10-14T19:01:08.239Z,33.90
2022-10-14T19:03:34.794Z,33.53
2022-10-14T19:06:01.310Z,32.97
2022-10-14T19:08:27.836Z,33.53
2022-10-14T19:11:01.518Z,32.20
2022-10-14T19:13:28.093Z,32.25
2022-10-14T19:16:04.567Z,33.85
2022-10-14T19:18:31.077Z,32.30
2022-10-14T19:21:08.932Z,33.13
2022-10-14T19:23:41.497Z,31.35
2022-10-14T19:26:08.446Z,33.55
2022-10-14T19:28:34.959Z,32.45
2022-10-14T19:31:12.062Z,34.53
2022-10-14T19:33:38.983Z,36.30
2022-10-14T19:36:07.241Z,39.28
2022-10-14T19:38:34.188Z,37.80
2022-10-14T19:41:00.902Z,38.85
2022-10-14T19:43:27.497Z,39.33
2022-10-14T19:45:53.950Z,36.25
2022-10-14T19:48:20.366Z,37.45
2022-10-14T19:50:46.804Z,35.55
2022-10-14T19:53:13.231Z,34.80
2022-10-14T19:55:39.761Z,32.63
2022-10-14T19:58:06.251Z,33.45
2022-10-14T20:00:33.075Z,33.90
2022-10-14T20:02:59.480Z,33.70
2022-10-14T20:05:25.944Z,35.03
2022-10-14T20:07:54.518Z,36.75
2022-10-14T20:10:20.958Z,37.20
2022-10-14T20:12:47.371Z,37.78
2022-10-14T20:15:13.913Z,37.70
2022-10-14T20:17:40.333Z,34.47
2022-10-14T20:20:07.187Z,34.45
2022-10-14T20:22:33.591Z,33.17
2022-10-14T20:25:00.143Z,33.08
2022-10-14T20:27:26.802Z,33.13
2022-10-14T20:29:53.346Z,34.42
2022-10-14T20:32:20.989Z,32.83
2022-10-14T20:34:48.056Z,34.70
2022-10-14T20:37:14.481Z,33.72
2022-10-14T20:39:41.014Z,35.25
2022-10-14T20:42:08.468Z,35.17
2022-10-14T20:44:34.954Z,34.30
2022-10-14T20:47:01.431Z,31.90
2022-10-14T20:49:27.816Z,35.45
2022-10-14T20:51:54.248Z,33.30
2022-10-14T20:54:20.767Z,32.72
2022-10-14T20:56:48.001Z,30.08
2022-10-14T20:59:14.896Z,32.97
2022-10-14T21:01:41.400Z,31.70
2022-10-14T21:04:07.947Z,31.90
2022-10-14T21:06:34.552Z,31.40
2022-10-14T21:09:00.989Z,32.45
2022-10-14T21:11:28.181Z,32.53
2022-10-14T21:13:58.779Z,30.60
2022-10-14T21:16:26.338Z,32.38
2022-10-14T21:18:57.623Z,31.38
2022-10-14T21:21:24.887Z,30.95
2022-10-14T21:23:51.485Z,31.30
2022-10-14T21:26:17.989Z,30.75
2022-10-14T21:28:44.551Z,30.98
2022-10-14T21:31:12.779Z,30.25
2022-10-14T21:33:41.182Z,30.73
2022-10-14T21:36:08.857Z,32.50
2022-10-14T21:38:35.313Z,29.48
2022-10-14T21:41:02.108Z,32.33
2022-10-14T21:43:28.993Z,32.30
2022-10-14T21:45:55.474Z,30.80
2022-10-14T21:48:22.252Z,31.50
2022-10-14T21:50:48.743Z,32.00
2022-10-14T21:53:16.220Z,30.13
2022-10-14T21:55:42.769Z,32.80
2022-10-14T21:58:09.229Z,30.67
2022-10-14T22:00:35.638Z,30.48
2022-10-14T22:03:02.286Z,30.63
2022-10-14T22:05:28.712Z,32.28
2022-10-14T22:07:55.157Z,32.65
2022-10-14T22:10:40.211Z,32.92
2022-10-14T22:13:06.619Z,31.77
2022-10-14T22:15:33.037Z,31.10
2022-10-14T22:17:59.462Z,30.15
2022-10-14T22:20:28.090Z,31.95
2022-10-14T22:22:54.485Z,32.10
2022-10-14T22:25:20.924Z,29.23
2022-10-14T22:27:47.355Z,30.77
2022-10-14T22:30:14.144Z,30.87
2022-10-14T22:32:40.547Z,28.50
2022-10-14T22:35:07.451Z,31.73
2022-10-14T22:37:33.863Z,31.48
2022-10-14T22:40:00.291Z,31.08
2022-10-14T22:42:26.735Z,29.88
2022-10-14T22:44:53.184Z,29.67
2022-10-14T22:47:19.858Z,28.10
2022-10-14T22:49:46.465Z,29.33
2022-10-14T22:52:13.044Z,34.63
2022-10-14T22:54:39.484Z,31.47
2022-10-14T22:57:05.961Z,31.23
2022-10-14T22:59:32.602Z,31.57
2022-10-14T23:01:59.013Z,35.53
2022-10-14T23:04:25.504Z,32.50
2022-10-14T23:06:52.111Z,29.57
2022-10-14T23:09:18.549Z,29.57
2022-10-14T23:11:45.005Z,30.50
2022-10-14T23:14:11.432Z,30.77
2022-10-14T23:16:38.424Z,28.87
2022-10-14T23:19:04.893Z,28.70
2022-10-14T23:21:32.297Z,28.50
2022-10-14T23:23:59.483Z,29.73
2022-10-14T23:26:26.461Z,29.70
2022-10-14T23:28:56.358Z,28.90
2022-10-14T23:31:23.624Z,30.10
2022-10-14T23:33:51.772Z,28.97
2022-10-14T23:36:18.482Z,27.87
2022-10-14T23:38:45.179Z,28.23
2022-10-14T23:41:11.823Z,28.50
2022-10-14T23:43:38.452Z,26.83
2022-10-14T23:46:05.054Z,28.27
2022-10-14T23:48:31.627Z,26.60
2022-10-14T23:50:58.041Z,29.03
2022-10-14T23:53:26.443Z,27.75
2022-10-14T23:55:53.118Z,27.85
2022-10-14T23:58:19.607Z,27.67
